createdAt,value
2022-11-14T01:12:54.424Z,0
2022-11-14T01:18:11.815Z,0
2022-11-14T01:23:31.836Z,0
2022-11-14T01:28:49.402Z,0
2022-11-14T01:34:06.829Z,0
2022-11-14T01:39:24.198Z,0
2022-11-14T01:44:43.736Z,0
2022-11-14T01:50:01.212Z,0
2022-11-14T01:55:18.466Z,0
2022-11-14T02:00:35.834Z,0
2022-11-14T02:05:53.187Z,0
2022-11-14T02:11:10.502Z,0
2022-11-14T02:16:27.944Z,0
2022-11-14T02:21:45.362Z,0
2022-11-14T02:27:11.753Z,0
2022-11-14T02:32:32.655Z,0
2022-11-14T02:37:57.705Z,0
2022-11-14T02:43:14.961Z,0
2022-11-14T02:48:32.761Z,0
2022-11-14T02:59:07.597Z,0
2022-11-14T03:04:27.297Z,0
2022-11-14T03:09:44.574Z,0
2022-11-14T03:15:01.892Z,0
2022-11-14T03:20:36.399Z,0
2022-11-14T03:25:53.729Z,0
2022-11-14T03:31:31.812Z,0
2022-11-14T03:36:49.444Z,0
2022-11-14T03:42:06.693Z,0
2022-11-14T03:47:24.191Z,0
2022-11-14T03:52:41.805Z,0
2022-11-14T03:57:59.355Z,0
2022-11-14T04:03:16.569Z,0
2022-11-14T04:08:49.712Z,0
2022-11-14T04:14:07.065Z,0
2022-11-14T04:19:34.758Z,0
2022-11-14T04:24:52.353Z,0
2022-11-14T04:30:12.277Z,0
2022-11-14T04:35:29.569Z,0
2022-11-14T04:40:46.747Z,0
2022-11-14T04:46:04.028Z,0
2022-11-14T04:51:44.155Z,0
2022-11-14T04:57:01.668Z,0
2022-11-14T05:02:18.953Z,0
2022-11-14T05:07:43.819Z,0
2022-11-14T05:13:01.587Z,0
2022-11-14T05:18:19.038Z,0
2022-11-14T05:23:36.499Z,0
2022-11-14T05:28:54.184Z,0
2022-11-14T05:34:11.718Z,0
2022-11-14T05:39:29.336Z,0
2022-11-14T05:44:46.697Z,0
2022-11-14T05:50:04.037Z,0
2022-11-14T05:55:30.372Z,0
2022-11-14T06:00:52.161Z,0
2022-11-14T06:06:11.639Z,0
2022-11-14T06:11:28.932Z,0
2022-11-14T06:16:46.543Z,0
2022-11-14T06:22:04.149Z,0
2022-11-14T06:32:45.195Z,39.6
2022-11-14T06:38:02.491Z,82.5
2022-11-14T06:43:19.727Z,149.6
2022-11-14T06:48:46.195Z,242.9
2022-11-14T06:54:03.396Z,363.7
2022-11-14T06:59:20.361Z,508.8
2022-11-14T07:04:37.547Z,675.4
2022-11-14T07:09:54.624Z,863.7
2022-11-14T07:15:11.761Z,1067.9
2022-11-14T07:20:36.239Z,1290
2022-11-14T07:25:53.507Z,1538.7
2022-11-14T07:31:10.689Z,1790
2022-11-14T07:36:28.124Z,2088.7
2022-11-14T07:41:45.436Z,2312.1
2022-11-14T07:47:02.572Z,2531.7
2022-11-14T07:52:19.767Z,2906.3
2022-11-14T07:57:49.330Z,2809.6
2022-11-14T08:03:07.099Z,3222.9
2022-11-14T08:08:24.735Z,3566.3
2022-11-14T08:13:41.457Z,3727.1
2022-11-14T08:18:59.419Z,4145
2022-11-14T08:24:15.914Z,4206.7
2022-11-14T08:29:33.062Z,4735.8
2022-11-14T08:34:50.267Z,5086.3
2022-11-14T08:40:08.470Z,5103.8
2022-11-14T08:45:24.795Z,5178.3
2022-11-14T08:50:51.331Z,5568.8
2022-11-14T08:56:08.639Z,5938.8
2022-11-14T09:01:25.775Z,5790.8
2022-11-14T09:06:43.011Z,6144.6
2022-11-14T09:12:00.317Z,6219.2
2022-11-14T09:17:17.533Z,6570.4
2022-11-14T09:22:34.671Z,6993.3
2022-11-14T09:27:59.293Z,8044.6
2022-11-14T09:33:16.619Z,7054.2
2022-11-14T09:38:38.616Z,6930.8
2022-11-14T09:43:56.040Z,7260
2022-11-14T09:49:13.026Z,6964.2
2022-11-14T09:54:30.131Z,6920.8
2022-11-14T09:59:47.304Z,8457.9
2022-11-14T10:05:04.481Z,9172.1
2022-11-14T10:10:21.626Z,9277.9
2022-11-14T10:15:38.787Z,9504.2
2022-11-14T10:20:55.864Z,9502.1
2022-11-14T10:26:21.993Z,10252.5
2022-11-14T10:31:39.539Z,9805.8
2022-11-14T10:36:56.674Z,9318.3
2022-11-14T10:42:13.808Z,10012.1
2022-11-14T10:47:30.966Z,9892.9
2022-11-14T10:52:48.128Z,9064.6
2022-11-14T10:58:03.636Z,8458.8
2022-11-14T11:03:21.109Z,10402.9
2022-11-14T11:08:43.044Z,12283.3
2022-11-14T11:19:21.143Z,6952.9
2022-11-14T11:24:37.485Z,8930
2022-11-14T11:30:03.338Z,10290
2022-11-14T11:35:38.840Z,11574.2
2022-11-14T11:40:56.413Z,8930.4
2022-11-14T11:46:12.771Z,9682.9
2022-11-14T11:51:35.374Z,11317.9
2022-11-14T11:56:52.984Z,10811.2
2022-11-14T12:02:12.938Z,9941.3
2022-11-14T12:07:30.224Z,9171.2
2022-11-14T12:12:47.023Z,7583.8
2022-11-14T12:18:03.478Z,5329.6
2022-11-14T12:23:20.142Z,4198.3
2022-11-14T12:28:39.291Z,3343.3
2022-11-14T12:33:56.652Z,2616.7
2022-11-14T12:39:13.424Z,2810.8
2022-11-14T12:44:30.919Z,2157.9
2022-11-14T12:49:47.869Z,2206.3
2022-11-14T12:55:07.985Z,2735
2022-11-14T13:00:34.107Z,2776.2
2022-11-14T13:05:51.294Z,3856.7
2022-11-14T13:11:08.343Z,4813.3
2022-11-14T13:16:28.401Z,5125.4
2022-11-14T13:21:46.069Z,4091.3
2022-11-14T13:27:03.081Z,3132.1
2022-11-14T13:37:39.522Z,2282.5
2022-11-14T13:42:56.551Z,1969.2
2022-11-14T13:48:13.605Z,1530.4
2022-11-14T13:53:33.396Z,1517.1
2022-11-14T13:58:50.784Z,1634.2
2022-11-14T14:04:07.623Z,1377.5
2022-11-14T14:09:24.330Z,1316.7
2022-11-14T14:14:41.232Z,1422.1
2022-11-14T14:19:58.171Z,1320
2022-11-14T14:25:15.124Z,1176.2
2022-11-14T14:30:31.995Z,1183.7
2022-11-14T14:35:49.030Z,1127.9
2022-11-14T14:41:05.679Z,1057.9
2022-11-14T14:51:45.571Z,824.2
2022-11-14T14:57:02.405Z,710.8
2022-11-14T15:02:19.219Z,616.7
2022-11-14T15:07:36.349Z,431.7
2022-11-14T15:12:53.575Z,291.7
2022-11-14T15:18:10.450Z,235.4
2022-11-14T15:23:27.765Z,188.8
2022-11-14T15:28:44.907Z,137.1
2022-11-14T15:34:02.439Z,110
2022-11-14T15:39:19.391Z,101.7
2022-11-14T15:50:02.472Z,41.2
2022-11-14T15:55:19.578Z,29.6
2022-11-14T16:00:42.700Z,18.3
2022-11-14T16:06:00.107Z,0.9
2022-11-14T16:16:34.660Z,0
2022-11-14T16:21:52.212Z,0
2022-11-14T16:27:09.543Z,0
2022-11-14T16:32:27.096Z,0
2022-11-14T16:37:44.421Z,0
2022-11-14T16:43:04.602Z,0
2022-11-14T16:48:21.820Z,0
2022-11-14T16:53:39.288Z,0
2022-11-14T16:59:18.030Z,0
2022-11-14T17:04:35.618Z,0
2022-11-14T17:09:55.662Z,0
2022-11-14T17:15:16.199Z,0
2022-11-14T17:20:33.493Z,0
2022-11-14T17:36:19.456Z,0
2022-11-14T17:41:36.819Z,0
2022-11-14T17:52:21.995Z,0
2022-11-14T17:57:39.532Z,0
2022-11-14T18:08:17.115Z,0
2022-11-14T18:13:34.476Z,0
2022-11-14T18:18:51.708Z,0
2022-11-14T18:24:09.018Z,0
2022-11-14T18:29:26.209Z,0
2022-11-14T18:34:43.863Z,0
2022-11-14T18:40:12.139Z,0
2022-11-14T18:45:32.353Z,0
2022-11-14T18:50:49.660Z,0
2022-11-14T18:56:06.800Z,0
2022-11-14T19:01:24.184Z,0
2022-11-14T19:06:41.343Z,0
2022-11-14T19:12:07.440Z,0
2022-11-14T19:17:25.206Z,0
2022-11-14T19:22:42.567Z,0
2022-11-14T19:28:02.336Z,0
2022-11-14T19:33:19.847Z,0
2022-11-14T19:43:57.682Z,0
2022-11-14T19:49:15.095Z,0
2022-11-14T19:54:32.308Z,0
2022-11-14T20:05:07.240Z,0
2022-11-14T20:10:24.472Z,0
2022-11-14T20:15:44.062Z,0
2022-11-14T20:21:01.768Z,0
2022-11-14T20:26:19.165Z,0
2022-11-14T20:31:39.738Z,0
2022-11-14T20:37:10.224Z,0
2022-11-14T20:42:28.636Z,0
2022-11-14T20:47:46.555Z,0
2022-11-14T20:53:06.927Z,0
2022-11-14T20:58:27.222Z,0
2022-11-14T21:03:44.454Z,0
2022-11-14T21:09:01.959Z,0
2022-11-14T21:14:19.120Z,0
2022-11-14T21:19:36.337Z,0
2022-11-14T21:24:56.754Z,0
2022-11-14T21:30:14.179Z,0
2022-11-14T21:35:31.367Z,0
2022-11-14T21:40:48.688Z,0
2022-11-14T21:46:06.260Z,0
2022-11-14T21:51:23.555Z,0
2022-11-14T21:56:41.002Z,0
2022-11-14T22:01:58.645Z,0
2022-11-14T22:07:21.009Z,0
2022-11-14T22:12:38.511Z,0
2022-11-14T22:17:56.001Z,0
2022-11-14T22:28:34.007Z,0
2022-11-14T22:33:56.287Z,0
2022-11-14T22:39:13.655Z,0
2022-11-14T22:49:52.543Z,0
2022-11-14T22:55:13.816Z,0
2022-11-14T23:00:34.389Z,0
2022-11-14T23:05:51.793Z,0
2022-11-14T23:11:09.157Z,0
2022-11-14T23:16:26.539Z,0
2022-11-14T23:21:43.973Z,0
2022-11-14T23:32:21.641Z,0
2022-11-14T23:37:50.207Z,0
2022-11-14T23:43:07.974Z,0
2022-11-14T23:48:25.066Z,0
2022-11-14T23:53:42.591Z,0
